sensor_id;sensor_type;location;lat;lon;timestamp;pressure;altitude;pressure_sealevel;temperature;humidity
29197;BME280;62796;42.654;23.316;2023-02-12T00:02:23;95480.03;;;3.96;28.60
29197;BME280;62796;42.654;23.316;2023-02-12T00:04:48;95480.16;;;3.88;28.48
29197;BME280;62796;42.654;23.316;2023-02-12T00:07:14;95438.97;;;3.72;28.68
29197;BME280;62796;42.654;23.316;2023-02-12T00:09:39;95470.63;;;3.97;28.93
29197;BME280;62796;42.654;23.316;2023-02-12T00:12:05;95453.75;;;3.78;29.03
29197;BME280;62796;42.654;23.316;2023-02-12T00:14:31;95491.94;;;4.09;28.52
29197;BME280;62796;42.654;23.316;2023-02-12T00:16:56;95488.34;;;4.12;28.20
29197;BME280;62796;42.654;23.316;2023-02-12T00:19:21;95488.81;;;4.07;28.66
29197;BME280;62796;42.654;23.316;2023-02-12T00:21:48;95492.28;;;4.11;28.63
29197;BME280;62796;42.654;23.316;2023-02-12T00:24:13;95492.28;;;4.11;28.19
29197;BME280;62796;42.654;23.316;2023-02-12T00:26:38;95478.13;;;4.12;28.27
29197;BME280;62796;42.654;23.316;2023-02-12T00:29:04;95488.78;;;4.30;27.99
29197;BME280;62796;42.654;23.316;2023-02-12T00:31:30;95485.84;;;4.21;28.37
29197;BME280;62796;42.654;23.316;2023-02-12T00:33:57;95490.31;;;4.31;28.47
29197;BME280;62796;42.654;23.316;2023-02-12T00:36:25;95477.19;;;4.22;28.18
29197;BME280;62796;42.654;23.316;2023-02-12T00:38:53;95465.50;;;4.18;28.37
29197;BME280;62796;42.654;23.316;2023-02-12T00:41:19;95463.13;;;4.20;28.93
29197;BME280;62796;42.654;23.316;2023-02-12T00:43:45;95426.56;;;3.87;28.75
29197;BME280;62796;42.654;23.316;2023-02-12T00:46:11;95458.66;;;4.07;29.01
29197;BME280;62796;42.654;23.316;2023-02-12T00:48:36;95442.22;;;4.07;28.40
29197;BME280;62796;42.654;23.316;2023-02-12T00:51:03;95446.19;;;4.06;28.85
29197;BME280;62796;42.654;23.316;2023-02-12T00:53:29;95443.00;;;4.07;28.55
29197;BME280;62796;42.654;23.316;2023-02-12T00:55:55;95447.56;;;4.14;29.00
29197;BME280;62796;42.654;23.316;2023-02-12T00:58:20;95415.31;;;4.02;28.86
29197;BME280;62796;42.654;23.316;2023-02-12T01:00:46;95446.03;;;4.32;28.33
29197;BME280;62796;42.654;23.316;2023-02-12T01:03:11;95441.81;;;4.28;28.47
29197;BME280;62796;42.654;23.316;2023-02-12T01:05:37;95428.53;;;4.26;28.37
29197;BME280;62796;42.654;23.316;2023-02-12T01:08:03;95439.22;;;4.21;28.56
29197;BME280;62796;42.654;23.316;2023-02-12T01:10:29;95442.22;;;4.07;28.42
29197;BME280;62796;42.654;23.316;2023-02-12T01:12:55;95428.63;;;3.80;28.91
29197;BME280;62796;42.654;23.316;2023-02-12T01:15:21;95434.06;;;3.83;29.12
29197;BME280;62796;42.654;23.316;2023-02-12T01:17:46;95433.34;;;3.79;29.58
29197;BME280;62796;42.654;23.316;2023-02-12T01:20:15;95439.47;;;3.87;29.66
29197;BME280;62796;42.654;23.316;2023-02-12T01:22:44;95443.47;;;3.82;29.37
29197;BME280;62796;42.654;23.316;2023-02-12T01:25:10;95422.81;;;3.58;29.80
29197;BME280;62796;42.654;23.316;2023-02-12T01:27:36;95458.22;;;3.88;29.65
29197;BME280;62796;42.654;23.316;2023-02-12T01:30:02;95459.78;;;3.89;29.73
29197;BME280;62796;42.654;23.316;2023-02-12T01:32:28;95459.22;;;3.78;29.65
29197;BME280;62796;42.654;23.316;2023-02-12T01:34:53;95452.06;;;3.84;30.05
29197;BME280;62796;42.654;23.316;2023-02-12T01:37:19;95457.09;;;3.86;30.23
29197;BME280;62796;42.654;23.316;2023-02-12T01:39:44;95449.78;;;3.79;30.10
29197;BME280;62796;42.654;23.316;2023-02-12T01:42:14;95451.00;;;3.78;30.44
29197;BME280;62796;42.654;23.316;2023-02-12T01:44:44;95448.19;;;3.82;30.36
29197;BME280;62796;42.654;23.316;2023-02-12T01:47:16;95444.91;;;3.90;30.05
29197;BME280;62796;42.654;23.316;2023-02-12T01:49:44;95432.03;;;3.87;30.20
29197;BME280;62796;42.654;23.316;2023-02-12T01:52:24;95432.38;;;3.89;30.67
29197;BME280;62796;42.654;23.316;2023-02-12T01:54:53;95428.91;;;3.85;30.33
29197;BME280;62796;42.654;23.316;2023-02-12T01:57:20;95422.97;;;3.90;30.27
29197;BME280;62796;42.654;23.316;2023-02-12T01:59:47;95394.22;;;3.79;30.19
29197;BME280;62796;42.654;23.316;2023-02-12T02:02:15;95422.13;;;3.94;30.92
29197;BME280;62796;42.654;23.316;2023-02-12T02:04:46;95420.44;;;4.00;30.57
29197;BME280;62796;42.654;23.316;2023-02-12T02:07:13;95388.81;;;3.75;30.65
29197;BME280;62796;42.654;23.316;2023-02-12T02:09:39;95414.25;;;3.96;30.46
29197;BME280;62796;42.654;23.316;2023-02-12T02:12:05;95427.75;;;3.86;30.96
29197;BME280;62796;42.654;23.316;2023-02-12T02:14:54;95424.78;;;3.77;31.47
29197;BME280;62796;42.654;23.316;2023-02-12T02:20:16;95427.53;;;3.77;31.08
29197;BME280;62796;42.654;23.316;2023-02-12T02:25:56;95432.94;;;3.81;31.22
29197;BME280;62796;42.654;23.316;2023-02-12T02:31:21;95425.50;;;3.81;32.16
29197;BME280;62796;42.654;23.316;2023-02-12T02:33:57;95420.69;;;3.85;32.14
29197;BME280;62796;42.654;23.316;2023-02-12T02:42:31;95413.13;;;3.93;32.19
29197;BME280;62796;42.654;23.316;2023-02-12T02:45:18;95416.28;;;3.91;32.63
29197;BME280;62796;42.654;23.316;2023-02-12T02:47:50;95409.84;;;3.82;32.63
29197;BME280;62796;42.654;23.316;2023-02-12T02:50:19;95423.53;;;3.82;32.83
29197;BME280;62796;42.654;23.316;2023-02-12T02:55:19;95413.69;;;3.84;33.35
29197;BME280;62796;42.654;23.316;2023-02-12T03:00:39;95415.22;;;3.85;33.78
29197;BME280;62796;42.654;23.316;2023-02-12T03:03:26;95416.00;;;3.86;33.99
29197;BME280;62796;42.654;23.316;2023-02-12T03:05:57;95422.31;;;3.83;33.52
29197;BME280;62796;42.654;23.316;2023-02-12T03:08:30;95417.63;;;3.83;33.84
29197;BME280;62796;42.654;23.316;2023-02-12T03:11:14;95425.44;;;3.85;33.96
29197;BME280;62796;42.654;23.316;2023-02-12T03:13:47;95417.75;;;3.76;34.13
29197;BME280;62796;42.654;23.316;2023-02-12T03:16:23;95414.38;;;3.88;33.68
29197;BME280;62796;42.654;23.316;2023-02-12T03:19:07;95429.28;;;3.87;34.00
29197;BME280;62796;42.654;23.316;2023-02-12T03:21:44;95415.94;;;3.89;34.12
29197;BME280;62796;42.654;23.316;2023-02-12T03:24:28;95417.63;;;3.83;34.13
29197;BME280;62796;42.654;23.316;2023-02-12T03:29:28;95417.00;;;3.76;34.06
29197;BME280;62796;42.654;23.316;2023-02-12T03:37:32;95407.22;;;3.95;34.59
29197;BME280;62796;42.654;23.316;2023-02-12T03:44:58;95419.31;;;3.97;34.24
29197;BME280;62796;42.654;23.316;2023-02-12T03:48:04;95403.28;;;3.96;34.70
29197;BME280;62796;42.654;23.316;2023-02-12T03:50:46;95420.03;;;4.21;34.66
29197;BME280;62796;42.654;23.316;2023-02-12T03:53:12;95415.22;;;4.25;34.08
29197;BME280;62796;42.654;23.316;2023-02-12T03:55:41;95417.41;;;4.33;34.44
29197;BME280;62796;42.654;23.316;2023-02-12T03:58:09;95425.56;;;4.37;34.29
29197;BME280;62796;42.654;23.316;2023-02-12T04:00:38;95429.34;;;4.43;34.03
29197;BME280;62796;42.654;23.316;2023-02-12T04:03:04;95399.47;;;4.29;33.99
29197;BME280;62796;42.654;23.316;2023-02-12T04:05:31;95420.91;;;4.54;33.67
29197;BME280;62796;42.654;23.316;2023-02-12T04:07:57;95392.69;;;4.53;33.57
29197;BME280;62796;42.654;23.316;2023-02-12T04:10:31;95406.88;;;4.68;33.87
29197;BME280;62796;42.654;23.316;2023-02-12T04:18:22;95419.09;;;4.63;33.84
29197;BME280;62796;42.654;23.316;2023-02-12T04:21:01;95419.66;;;4.74;33.75
29197;BME280;62796;42.654;23.316;2023-02-12T04:34:23;95436.78;;;4.78;33.99
29197;BME280;62796;42.654;23.316;2023-02-12T04:37:01;95439.66;;;4.75;33.98
29197;BME280;62796;42.654;23.316;2023-02-12T04:39:30;95443.13;;;4.75;33.97
29197;BME280;62796;42.654;23.316;2023-02-12T04:42:01;95401.59;;;4.57;33.89
29197;BME280;62796;42.654;23.316;2023-02-12T04:44:30;95439.19;;;4.76;33.75
29197;BME280;62796;42.654;23.316;2023-02-12T04:46:56;95443.13;;;4.75;34.43
29197;BME280;62796;42.654;23.316;2023-02-12T04:49:22;95440.19;;;4.66;34.21
29197;BME280;62796;42.654;23.316;2023-02-12T04:51:49;95459.00;;;4.68;33.89
29197;BME280;62796;42.654;23.316;2023-02-12T04:54:16;95456.53;;;4.73;33.86
29197;BME280;62796;42.654;23.316;2023-02-12T04:56:42;95454.97;;;4.72;34.31
29197;BME280;62796;42.654;23.316;2023-02-12T04:59:08;95459.78;;;4.68;34.00
29197;BME280;62796;42.654;23.316;2023-02-12T05:01:35;95462.59;;;4.65;34.42
29197;BME280;62796;42.654;23.316;2023-02-12T05:04:01;95454.09;;;4.59;34.29
29197;BME280;62796;42.654;23.316;2023-02-12T05:06:27;95454.56;;;4.54;34.65
29197;BME280;62796;42.654;23.316;2023-02-12T05:08:54;95448.47;;;4.46;34.88
29197;BME280;62796;42.654;23.316;2023-02-12T05:11:20;95454.09;;;4.39;34.99
29197;BME280;62796;42.654;23.316;2023-02-12T05:13:50;95465.63;;;4.31;34.81
29197;BME280;62796;42.654;23.316;2023-02-12T05:16:17;95459.94;;;4.22;34.89
29197;BME280;62796;42.654;23.316;2023-02-12T05:18:42;95457.34;;;4.15;34.51
29197;BME280;62796;42.654;23.316;2023-02-12T05:21:08;95459.16;;;4.02;34.68
29197;BME280;62796;42.654;23.316;2023-02-12T05:23:36;95472.25;;;3.94;35.35
29197;BME280;62796;42.654;23.316;2023-02-12T05:26:05;95480.75;;;4.00;35.25
29197;BME280;62796;42.654;23.316;2023-02-12T05:28:31;95482.59;;;3.83;36.46
29197;BME280;62796;42.654;23.316;2023-02-12T05:31:00;95487.56;;;3.68;37.19
29197;BME280;62796;42.654;23.316;2023-02-12T05:33:26;95485.09;;;3.54;37.68
29197;BME280;62796;42.654;23.316;2023-02-12T05:35:52;95488.34;;;3.46;38.13
29197;BME280;62796;42.654;23.316;2023-02-12T05:38:17;95492.56;;;3.50;37.96
29197;BME280;62796;42.654;23.316;2023-02-12T05:40:43;95494.94;;;3.25;39.11
29197;BME280;62796;42.654;23.316;2023-02-12T05:43:08;95466.00;;;3.01;39.88
29197;BME280;62796;42.654;23.316;2023-02-12T05:45:33;95496.97;;;3.21;40.30
29197;BME280;62796;42.654;23.316;2023-02-12T05:47:59;95506.31;;;3.23;40.69
29197;BME280;62796;42.654;23.316;2023-02-12T05:50:24;95515.38;;;3.17;40.94
29197;BME280;62796;42.654;23.316;2023-02-12T05:52:50;95503.94;;;3.25;40.95
29197;BME280;62796;42.654;23.316;2023-02-12T05:55:15;95501.00;;;3.13;41.09
29197;BME280;62796;42.654;23.316;2023-02-12T05:57:41;95472.38;;;2.91;41.11
29197;BME280;62796;42.654;23.316;2023-02-12T06:00:08;95507.13;;;3.20;41.48
29197;BME280;62796;42.654;23.316;2023-02-12T06:02:34;95496.34;;;3.10;41.92
29197;BME280;62796;42.654;23.316;2023-02-12T06:04:59;95491.72;;;3.07;42.63
29197;BME280;62796;42.654;23.316;2023-02-12T06:07:25;95486.53;;;2.86;42.99
29197;BME280;62796;42.654;23.316;2023-02-12T06:09:51;95493.72;;;3.03;43.49
29197;BME280;62796;42.654;23.316;2023-02-12T06:12:16;95510.06;;;3.33;43.48
29197;BME280;62796;42.654;23.316;2023-02-12T06:14:42;95507.44;;;3.26;44.11
29197;BME280;62796;42.654;23.316;2023-02-12T06:17:07;95509.28;;;3.32;44.60
29197;BME280;62796;42.654;23.316;2023-02-12T06:19:35;95516.97;;;3.41;44.26
29197;BME280;62796;42.654;23.316;2023-02-12T06:22:00;95524.59;;;3.30;45.10
29197;BME280;62796;42.654;23.316;2023-02-12T06:24:26;95524.28;;;3.24;45.08
29197;BME280;62796;42.654;23.316;2023-02-12T06:26:51;95495.09;;;2.88;45.98
29197;BME280;62796;42.654;23.316;2023-02-12T06:29:18;95514.53;;;2.97;46.81
29197;BME280;62796;42.654;23.316;2023-02-12T06:31:43;95520.72;;;3.01;47.20
29197;BME280;62796;42.654;23.316;2023-02-12T06:34:10;95509.47;;;2.95;47.97
29197;BME280;62796;42.654;23.316;2023-02-12T06:36:38;95533.84;;;3.13;48.73
29197;BME280;62796;42.654;23.316;2023-02-12T06:39:05;95532.50;;;3.24;48.33
29197;BME280;62796;42.654;23.316;2023-02-12T06:41:31;95535.97;;;3.28;48.41
29197;BME280;62796;42.654;23.316;2023-02-12T06:43:56;95542.09;;;3.36;48.09
29197;BME280;62796;42.654;23.316;2023-02-12T06:46:22;95543.38;;;3.55;47.87
29197;BME280;62796;42.654;23.316;2023-02-12T06:48:47;95543.31;;;3.58;47.46
29197;BME280;62796;42.654;23.316;2023-02-12T06:51:15;95537.59;;;3.72;47.25
29197;BME280;62796;42.654;23.316;2023-02-12T06:53:42;95535.22;;;3.74;47.04
29197;BME280;62796;42.654;23.316;2023-02-12T06:56:10;95537.47;;;3.79;47.23
29197;BME280;62796;42.654;23.316;2023-02-12T06:58:38;95538.31;;;3.76;47.45
29197;BME280;62796;42.654;23.316;2023-02-12T07:01:18;95530.03;;;3.57;47.55
29197;BME280;62796;42.654;23.316;2023-02-12T07:03:58;95526.41;;;3.63;47.04
29197;BME280;62796;42.654;23.316;2023-02-12T07:06:26;95545.69;;;3.56;47.31
29197;BME280;62796;42.654;23.316;2023-02-12T07:08:53;95526.28;;;3.47;47.65
29197;BME280;62796;42.654;23.316;2023-02-12T07:11:22;95508.47;;;3.35;47.54
29197;BME280;62796;42.654;23.316;2023-02-12T07:13:48;95504.34;;;3.24;47.25
29197;BME280;62796;42.654;23.316;2023-02-12T07:16:14;95541.03;;;3.53;47.20
29197;BME280;62796;42.654;23.316;2023-02-12T07:18:41;95530.88;;;3.54;47.18
29197;BME280;62796;42.654;23.316;2023-02-12T07:21:08;95535.81;;;3.62;47.33
29197;BME280;62796;42.654;23.316;2023-02-12T07:23:34;95532.97;;;3.69;47.40
29197;BME280;62796;42.654;23.316;2023-02-12T07:26:05;95497.22;;;3.53;46.76
29197;BME280;62796;42.654;23.316;2023-02-12T07:28:32;95548.66;;;3.88;46.93
29197;BME280;62796;42.654;23.316;2023-02-12T07:33:36;95540.81;;;3.90;46.81
29197;BME280;62796;42.654;23.316;2023-02-12T07:36:09;95534.84;;;3.96;46.49
29197;BME280;62796;42.654;23.316;2023-02-12T07:38:36;95541.84;;;4.00;46.24
29197;BME280;62796;42.654;23.316;2023-02-12T07:43:33;95551.97;;;4.03;46.30
29197;BME280;62796;42.654;23.316;2023-02-12T07:46:10;95556.66;;;4.03;46.67
29197;BME280;62796;42.654;23.316;2023-02-12T07:48:36;95554.16;;;4.12;46.48
29197;BME280;62796;42.654;23.316;2023-02-12T07:51:06;95559.16;;;4.17;46.45
29197;BME280;62796;42.654;23.316;2023-02-12T07:53:32;95562.19;;;4.22;46.43
29197;BME280;62796;42.654;23.316;2023-02-12T07:56:12;95563.19;;;4.32;46.59
29197;BME280;62796;42.654;23.316;2023-02-12T07:58:39;95568.09;;;4.21;46.68
29197;BME280;62796;42.654;23.316;2023-02-12T08:01:18;95565.63;;;4.26;47.04
29197;BME280;62796;42.654;23.316;2023-02-12T08:03:44;95565.34;;;4.21;47.27
29197;BME280;62796;42.654;23.316;2023-02-12T08:06:15;95564.28;;;3.91;47.88
29197;BME280;62796;42.654;23.316;2023-02-12T08:08:41;95566.84;;;4.02;47.70
29197;BME280;62796;42.654;23.316;2023-02-12T08:11:08;95575.78;;;4.06;47.40
29197;BME280;62796;42.654;23.316;2023-02-12T08:13:35;95573.91;;;4.03;47.91
29197;BME280;62796;42.654;23.316;2023-02-12T08:16:02;95549.16;;;3.83;47.87
29197;BME280;62796;42.654;23.316;2023-02-12T08:18:30;95566.06;;;4.02;47.66
29197;BME280;62796;42.654;23.316;2023-02-12T08:21:07;95576.94;;;4.09;47.65
29197;BME280;62796;42.654;23.316;2023-02-12T08:23:33;95580.00;;;4.11;47.67
29197;BME280;62796;42.654;23.316;2023-02-12T08:26:08;95577.63;;;4.13;47.81
29197;BME280;62796;42.654;23.316;2023-02-12T08:28:36;95586.22;;;4.15;47.69
29197;BME280;62796;42.654;23.316;2023-02-12T08:31:08;95585.50;;;4.11;47.77
29197;BME280;62796;42.654;23.316;2023-02-12T08:33:33;95583.31;;;4.02;48.45
29197;BME280;62796;42.654;23.316;2023-02-12T08:36:03;95593.38;;;4.09;48.39
29197;BME280;62796;42.654;23.316;2023-02-12T08:38:30;95589.19;;;4.01;47.99
29197;BME280;62796;42.654;23.316;2023-02-12T08:40:59;95597.69;;;4.06;48.55
29197;BME280;62796;42.654;23.316;2023-02-12T08:43:26;95591.88;;;4.04;48.27
29197;BME280;62796;42.654;23.316;2023-02-12T08:45:51;95602.78;;;4.08;48.60
29197;BME280;62796;42.654;23.316;2023-02-12T08:48:16;95606.59;;;4.14;48.14
29197;BME280;62796;42.654;23.316;2023-02-12T08:50:45;95609.00;;;4.12;48.68
29197;BME280;62796;42.654;23.316;2023-02-12T08:53:10;95574.41;;;3.95;48.38
29197;BME280;62796;42.654;23.316;2023-02-12T08:55:35;95618.28;;;4.18;48.35
29197;BME280;62796;42.654;23.316;2023-02-12T08:58:01;95612.03;;;4.17;48.52
29197;BME280;62796;42.654;23.316;2023-02-12T09:00:27;95619.72;;;4.26;48.18
29197;BME280;62796;42.654;23.316;2023-02-12T09:02:53;95611.72;;;4.35;47.85
29197;BME280;62796;42.654;23.316;2023-02-12T09:05:18;95618.56;;;4.46;47.66
29197;BME280;62796;42.654;23.316;2023-02-12T09:07:44;95628.75;;;4.46;47.64
29197;BME280;62796;42.654;23.316;2023-02-12T09:10:09;95629.09;;;4.48;47.40
29197;BME280;62796;42.654;23.316;2023-02-12T09:12:35;95623.19;;;4.50;47.95
29197;BME280;62796;42.654;23.316;2023-02-12T09:15:00;95630.31;;;4.47;47.80
29197;BME280;62796;42.654;23.316;2023-02-12T09:17:25;95632.66;;;4.45;47.49
29197;BME280;62796;42.654;23.316;2023-02-12T09:19:52;95631.16;;;4.44;47.94
29197;BME280;62796;42.654;23.316;2023-02-12T09:22:18;95644.97;;;4.37;48.23
29197;BME280;62796;42.654;23.316;2023-02-12T09:24:43;95637.97;;;4.36;48.17
29197;BME280;62796;42.654;23.316;2023-02-12T09:27:09;95641.00;;;4.41;48.11
29197;BME280;62796;42.654;23.316;2023-02-12T09:29:34;95614.47;;;4.12;48.32
29197;BME280;62796;42.654;23.316;2023-02-12T09:32:00;95636.47;;;4.31;48.43
29197;BME280;62796;42.654;23.316;2023-02-12T09:34:28;95613.16;;;3.97;48.79
29197;BME280;62796;42.654;23.316;2023-02-12T09:36:54;95647.13;;;4.26;48.98
29197;BME280;62796;42.654;23.316;2023-02-12T09:39:19;95640.91;;;4.22;48.97
29197;BME280;62796;42.654;23.316;2023-02-12T09:42:03;95644.16;;;4.17;49.30
29197;BME280;62796;42.654;23.316;2023-02-12T09:47:31;95648.22;;;4.32;48.86
29197;BME280;62796;42.654;23.316;2023-02-12T09:52:28;95653.25;;;4.33;48.70
29197;BME280;62796;42.654;23.316;2023-02-12T09:54:54;95609.00;;;4.12;48.74
29197;BME280;62796;42.654;23.316;2023-02-12T09:57:27;95654.75;;;4.38;48.55
29197;BME280;62796;42.654;23.316;2023-02-12T10:02:41;95645.94;;;4.50;48.50
29197;BME280;62796;42.654;23.316;2023-02-12T10:05:15;95647.53;;;4.47;48.23
29197;BME280;62796;42.654;23.316;2023-02-12T10:12:50;95659.81;;;4.63;48.42
29197;BME280;62796;42.654;23.316;2023-02-12T10:21:08;95651.03;;;4.71;48.01
29197;BME280;62796;42.654;23.316;2023-02-12T10:26:48;95652.88;;;4.97;48.00
29197;BME280;62796;42.654;23.316;2023-02-12T10:29:16;95623.66;;;4.87;47.25
29197;BME280;62796;42.654;23.316;2023-02-12T10:31:57;95647.88;;;4.92;47.71
29197;BME280;62796;42.654;23.316;2023-02-12T10:34:27;95652.88;;;4.97;47.79
29197;BME280;62796;42.654;23.316;2023-02-12T10:39:47;95662.78;;;5.11;47.42
29197;BME280;62796;42.654;23.316;2023-02-12T10:42:28;95661.09;;;5.17;47.08
29197;BME280;62796;42.654;23.316;2023-02-12T10:44:57;95651.94;;;5.24;47.00
29197;BME280;62796;42.654;23.316;2023-02-12T10:47:23;95655.22;;;5.35;46.98
29197;BME280;62796;42.654;23.316;2023-02-12T10:50:01;95657.13;;;5.38;46.99
29197;BME280;62796;42.654;23.316;2023-02-12T10:55:01;95653.94;;;5.59;46.12
29197;BME280;62796;42.654;23.316;2023-02-12T10:57:29;95645.81;;;5.36;46.48
29197;BME280;62796;42.654;23.316;2023-02-12T10:59:56;95656.34;;;5.57;46.44
29197;BME280;62796;42.654;23.316;2023-02-12T11:02:37;95633.31;;;5.51;46.10
29197;BME280;62796;42.654;23.316;2023-02-12T11:05:22;95661.63;;;5.48;47.12
29197;BME280;62796;42.654;23.316;2023-02-12T11:07:48;95663.41;;;5.58;46.49
29197;BME280;62796;42.654;23.316;2023-02-12T11:10:30;95673.44;;;5.65;46.50
29197;BME280;62796;42.654;23.316;2023-02-12T11:12:57;95665.81;;;5.72;45.98
29197;BME280;62796;42.654;23.316;2023-02-12T11:15:26;95665.22;;;5.81;45.54
29197;BME280;62796;42.654;23.316;2023-02-12T11:18:04;95669.09;;;5.83;46.30
29197;BME280;62796;42.654;23.316;2023-02-12T11:23:01;95661.25;;;5.85;46.23
29197;BME280;62796;42.654;23.316;2023-02-12T11:25:36;95657.63;;;6.04;45.75
29197;BME280;62796;42.654;23.316;2023-02-12T11:30:30;95656.97;;;6.33;45.00
29197;BME280;62796;42.654;23.316;2023-02-12T11:33:20;95625.09;;;5.83;45.19
29197;BME280;62796;42.654;23.316;2023-02-12T11:35:52;95652.66;;;6.16;45.39
29197;BME280;62796;42.654;23.316;2023-02-12T11:38:33;95655.22;;;5.35;47.17
29197;BME280;62796;42.654;23.316;2023-02-12T11:41:03;95648.34;;;5.46;47.51
29197;BME280;62796;42.654;23.316;2023-02-12T11:43:33;95653.38;;;5.84;46.72
29197;BME280;62796;42.654;23.316;2023-02-12T11:46:03;95648.88;;;6.09;46.05
29197;BME280;62796;42.654;23.316;2023-02-12T11:48:34;95656.09;;;6.03;45.73
29197;BME280;62796;42.654;23.316;2023-02-12T11:51:03;95650.78;;;5.61;46.93
29197;BME280;62796;42.654;23.316;2023-02-12T11:53:42;95648.66;;;5.84;46.52
29197;BME280;62796;42.654;23.316;2023-02-12T11:56:12;95644.16;;;6.10;45.86
29197;BME280;62796;42.654;23.316;2023-02-12T11:58:38;95649.75;;;6.39;45.01
29197;BME280;62796;42.654;23.316;2023-02-12T12:01:11;95656.69;;;6.43;44.90
29197;BME280;62796;42.654;23.316;2023-02-12T12:08:46;95654.72;;;6.28;45.01
29197;BME280;62796;42.654;23.316;2023-02-12T12:11:24;95652.66;;;6.48;44.49
29197;BME280;62796;42.654;23.316;2023-02-12T12:16:35;95653.31;;;6.68;43.40
29197;BME280;62796;42.654;23.316;2023-02-12T12:19:23;95657.47;;;6.89;43.15
29197;BME280;62796;42.654;23.316;2023-02-12T12:32:56;95659.16;;;7.28;42.05
29197;BME280;62796;42.654;23.316;2023-02-12T12:35:55;95665.53;;;7.24;42.14
29197;BME280;62796;42.654;23.316;2023-02-12T12:38:18;95667.75;;;7.30;42.19
29197;BME280;62796;42.654;23.316;2023-02-12T12:40:55;95669.13;;;7.38;41.68
29197;BME280;62796;42.654;23.316;2023-02-12T12:46:24;95670.34;;;7.49;41.44
29197;BME280;62796;42.654;23.316;2023-02-12T12:54:37;95670.44;;;7.46;41.23
29197;BME280;62796;42.654;23.316;2023-02-12T13:06:29;95682.31;;;7.30;41.68
29197;BME280;62796;42.654;23.316;2023-02-12T13:12:25;95697.84;;;6.79;42.57
29197;BME280;62796;42.654;23.316;2023-02-12T13:17:41;95696.28;;;6.94;42.81
29197;BME280;62796;42.654;23.316;2023-02-12T13:28:41;95692.56;;;6.56;43.99
29197;BME280;62796;42.654;23.316;2023-02-12T13:31:12;95702.63;;;6.62;43.95
29197;BME280;62796;42.654;23.316;2023-02-12T13:34:03;95692.78;;;6.45;44.19
29197;BME280;62796;42.654;23.316;2023-02-12T13:36:32;95685.34;;;6.30;44.22
29197;BME280;62796;42.654;23.316;2023-02-12T13:41:44;95663.69;;;5.44;46.17
29197;BME280;62796;42.654;23.316;2023-02-12T13:44:59;95703.41;;;5.59;46.84
29197;BME280;62796;42.654;23.316;2023-02-12T13:50:19;95722.94;;;5.45;47.38
29197;BME280;62796;42.654;23.316;2023-02-12T13:52:54;95718.13;;;5.69;47.05
29197;BME280;62796;42.654;23.316;2023-02-12T13:55:28;95721.97;;;5.55;47.17
29197;BME280;62796;42.654;23.316;2023-02-12T14:01:02;95729.66;;;5.80;46.87
29197;BME280;62796;42.654;23.316;2023-02-12T14:03:30;95722.94;;;6.00;46.41
29197;BME280;62796;42.654;23.316;2023-02-12T14:06:18;95722.97;;;6.17;45.84
29197;BME280;62796;42.654;23.316;2023-02-12T14:09:08;95729.25;;;6.33;45.29
29197;BME280;62796;42.654;23.316;2023-02-12T14:11:46;95738.47;;;6.27;45.18
29197;BME280;62796;42.654;23.316;2023-02-12T14:14:33;95748.69;;;6.42;45.08
29197;BME280;62796;42.654;23.316;2023-02-12T14:30:33;95747.25;;;6.70;44.27
29197;BME280;62796;42.654;23.316;2023-02-12T14:49:33;95781.31;;;6.92;43.77
29197;BME280;62796;42.654;23.316;2023-02-12T14:54:42;95776.84;;;6.98;43.50
29197;BME280;62796;42.654;23.316;2023-02-12T14:59:44;95788.56;;;6.86;43.55
29197;BME280;62796;42.654;23.316;2023-02-12T15:02:22;95794.22;;;6.79;43.81
29197;BME280;62796;42.654;23.316;2023-02-12T15:04:49;95804.38;;;6.82;44.05
29197;BME280;62796;42.654;23.316;2023-02-12T15:07:22;95806.19;;;6.89;43.70
29197;BME280;62796;42.654;23.316;2023-02-12T15:09:54;95812.13;;;6.87;43.92
29197;BME280;62796;42.654;23.316;2023-02-12T15:12:29;95807.47;;;6.84;43.84
29197;BME280;62796;42.654;23.316;2023-02-12T15:15:21;95825.41;;;6.92;43.78
29197;BME280;62796;42.654;23.316;2023-02-12T15:20:55;95831.75;;;6.89;43.44
29197;BME280;62796;42.654;23.316;2023-02-12T15:23:43;95844.75;;;6.89;43.33
29197;BME280;62796;42.654;23.316;2023-02-12T15:26:17;95850.34;;;6.85;43.89
29197;BME280;62796;42.654;23.316;2023-02-12T15:28:49;95863.25;;;6.88;43.88
29197;BME280;62796;42.654;23.316;2023-02-12T15:31:26;95861.34;;;6.85;43.98
29197;BME280;62796;42.654;23.316;2023-02-12T15:33:53;95863.59;;;6.74;44.33
29197;BME280;62796;42.654;23.316;2023-02-12T15:36:22;95850.41;;;6.65;44.32
29197;BME280;62796;42.654;23.316;2023-02-12T15:39:13;95867.38;;;6.80;44.37
29197;BME280;62796;42.654;23.316;2023-02-12T15:41:41;95873.22;;;6.82;44.42
29197;BME280;62796;42.654;23.316;2023-02-12T15:49:20;95849.56;;;6.68;44.45
29197;BME280;62796;42.654;23.316;2023-02-12T15:51:48;95868.06;;;6.68;44.52
29197;BME280;62796;42.654;23.316;2023-02-12T15:54:17;95852.91;;;6.60;44.54
29197;BME280;62796;42.654;23.316;2023-02-12T15:56:44;95881.56;;;6.79;44.62
29197;BME280;62796;42.654;23.316;2023-02-12T15:59:19;95879.94;;;6.81;44.46
29197;BME280;62796;42.654;23.316;2023-02-12T16:01:58;95885.44;;;6.81;44.60
29197;BME280;62796;42.654;23.316;2023-02-12T16:04:27;95883.91;;;6.80;44.63
29197;BME280;62796;42.654;23.316;2023-02-12T16:06:54;95902.81;;;6.78;44.64
29197;BME280;62796;42.654;23.316;2023-02-12T16:09:33;95909.03;;;6.82;44.70
29197;BME280;62796;42.654;23.316;2023-02-12T16:12:01;95917.81;;;6.77;44.92
29197;BME280;62796;42.654;23.316;2023-02-12T16:14:44;95889.19;;;6.55;45.08
29197;BME280;62796;42.654;23.316;2023-02-12T16:17:35;95919.44;;;6.75;45.11
29197;BME280;62796;42.654;23.316;2023-02-12T16:20:19;95922.28;;;6.71;44.98
29197;BME280;62796;42.654;23.316;2023-02-12T16:22:47;95926.94;;;6.54;45.40
29197;BME280;62796;42.654;23.316;2023-02-12T16:25:25;95932.38;;;6.58;45.67
29197;BME280;62796;42.654;23.316;2023-02-12T16:28:06;95951.16;;;6.63;45.38